EGGW/LTN METAR and TAF weather

Enter ICAO airport designator
Station Type Date Time Source
EGGW METAR 2020/09/20 14:50 UTC NOAA

EGGW 201450Z AUTO 04011KT 010V080 9999 NCD 21/12 Q1019


Station Type Date Time Source
EGGW Decoded METAR 2020/09/20 14:50 UTC NOAA

Luton Airport , United Kingdom (EGGW) 51-52N 000-22W
Sep 20, 2020 - 10:50 AM EDT / 2020.09.20 1450 UTC
Wind: from the NE (040 degrees) at 13 MPH (11 KT) (direction variable):0
Visibility: greater than 7 mile(s):0
Temperature: 69 F (21 C)
Dew Point: 53 F (12 C)
Relative Humidity: 56%
Pressure (altimeter): 30.09 in. Hg (1019 hPa)
ob: EGGW 201450Z AUTO 04011KT 010V080 9999 NCD 21/12 Q1019
cycle: 15

Station Type Date Time Source
EGGW TAF 2020/09/20 12:06 UTC NOAA

TAF EGGW 201054Z 2012/2112 04009KT CAVOK
BECMG 2100/2103 5000 BR BKN003 PROB40 2102/2108 0300 FG BKN000
BECMG 2107/2110 CAVOK

Example: see airport list